Terminal Aerodrome Forecast
Issued by NWS

Home | Current Version | Previous Version | Text Only | Print | Product List | Glossary On
Versions: 1 2 3 4 5 6 7 8 9 10 11 12 13 14 15 16 17
000
FTUS44 KLZK 170500 RRA
TAFLIT
TAF
KLIT 170550Z 1706/1806 13004KT P6SM FEW250
     FM171800 13007KT P6SM FEW050 SCT100 BKN250
     FM180000 13004KT P6SM SCT050 BKN100=

USA.gov is the U.S. government's official web portal to all federal, state and local government web resources and services.